Time;durP1;ratioP1;P1;durP2;ratioP2;P2;SDS_P1;SDS_P2;PMS_P1;PMS_P2;Temp;Humidity;BMP_temperature;BMP_pressure;BME280_temperature;BME280_humidity;BME280_pressure;Samples;Min_cycle;Max_cycle;Signal;HPM_P1;HPM_P2
2022/05/17 00:01:52;;;;;;;14.20;4.50;;;16.10;99.90;;;;;;5038328;28;20180;-63
2022/05/17 00:04:17;;;;;;;9.02;3.75;;;16.00;99.90;;;;;;5038029;28;20053;-63
2022/05/17 00:06:43;;;;;;;16.25;4.28;;;16.00;99.90;;;;;;5038927;28;20029;-63
2022/05/17 00:09:08;;;;;;;13.13;3.58;;;15.90;99.90;;;;;;5036442;28;20090;-63
2022/05/17 00:11:34;;;;;;;13.93;4.70;;;15.90;99.90;;;;;;5022021;28;20236;-63
2022/05/17 00:14:00;;;;;;;9.32;3.58;;;15.80;99.90;;;;;;5038730;28;20639;-63
2022/05/17 00:16:26;;;;;;;14.70;4.65;;;15.70;99.90;;;;;;5036467;28;20478;-63
2022/05/17 00:18:52;;;;;;;19.85;4.20;;;15.60;99.90;;;;;;5038831;28;20041;-63
2022/05/17 00:21:18;;;;;;;16.27;4.05;;;15.60;99.90;;;;;;5035878;28;20043;-63
2022/05/17 00:23:44;;;;;;;11.65;3.58;;;15.60;99.90;;;;;;5034493;28;20037;-63
2022/05/17 00:26:10;;;;;;;16.75;4.32;;;15.50;99.90;;;;;;5066492;28;20064;-63
2022/05/17 00:28:37;;;;;;;12.88;3.38;;;15.50;99.90;;;;;;5036304;28;20172;-63
2022/05/17 00:31:06;;;;;;;13.45;4.70;;;15.40;99.90;;;;;;5066832;28;20777;-63
2022/05/17 00:33:32;;;;;;;13.55;4.18;;;15.40;99.90;;;;;;5037819;28;20509;-63
2022/05/17 00:35:58;;;;;;;14.45;4.65;;;15.40;99.90;;;;;;5037050;28;20399;-63
2022/05/17 00:38:24;;;;;;;15.63;4.63;;;15.30;99.90;;;;;;5039310;28;20029;-63
2022/05/17 00:40:50;;;;;;;10.35;4.20;;;15.30;99.90;;;;;;5037594;28;20059;-63
2022/05/17 00:46:39;;;;;;;14.13;4.53;;;15.30;99.90;;;;;;5036634;28;20057;-63
2022/05/17 00:49:09;;;;;;;13.82;4.57;;;15.10;99.90;;;;;;5067805;28;20045;-63
2022/05/17 00:51:35;;;;;;;17.05;4.20;;;15.10;99.90;;;;;;5037572;28;20044;-63
2022/05/17 00:54:05;;;;;;;10.68;4.03;;;15.10;99.90;;;;;;5039833;28;20045;-63
2022/05/17 00:56:32;;;;;;;12.57;5.15;;;15.00;99.90;;;;;;5037507;28;20064;-63
2022/05/17 00:59:00;;;;;;;16.83;4.25;;;15.00;99.90;;;;;;5033943;28;20041;-63
2022/05/17 01:01:31;;;;;;;17.83;4.13;;;15.00;99.90;;;;;;5036139;28;21469;-63
2022/05/17 01:04:05;;;;;;;11.52;4.22;;;14.90;99.90;;;;;;5038369;28;20049;-63
2022/05/17 01:06:35;;;;;;;9.30;3.30;;;14.90;99.90;;;;;;5036588;28;20119;-63
2022/05/17 01:09:01;;;;;;;8.77;3.80;;;14.80;99.90;;;;;;5038825;28;20037;-63
2022/05/17 01:11:27;;;;;;;10.90;3.92;;;14.80;99.90;;;;;;5036773;28;20033;-63
2022/05/17 01:16:37;;;;;;;12.35;3.63;;;14.60;99.90;;;;;;5034367;28;20052;-63
2022/05/17 01:19:06;;;;;;;12.93;4.82;;;14.60;99.90;;;;;;5066917;28;20048;-63
2022/05/17 01:21:32;;;;;;;11.20;4.35;;;14.60;99.90;;;;;;5037416;28;20085;-63
2022/05/17 01:23:58;;;;;;;11.63;4.07;;;14.50;99.90;;;;;;5037556;28;20478;-63
2022/05/17 01:26:26;;;;;;;15.57;4.07;;;14.40;99.90;;;;;;5034154;28;20048;-63
2022/05/17 01:28:52;;;;;;;14.40;4.40;;;14.40;99.90;;;;;;5033565;28;20125;-63
2022/05/17 01:31:18;;;;;;;12.43;3.67;;;14.40;99.90;;;;;;5037025;28;20025;-63
2022/05/17 01:33:44;;;;;;;9.82;3.05;;;14.40;99.90;;;;;;5039504;28;20029;-63
2022/05/17 01:36:12;;;;;;;8.25;3.60;;;14.30;99.90;;;;;;5031099;28;20116;-63
2022/05/17 01:38:39;;;;;;;13.05;4.50;;;14.30;99.90;;;;;;5037676;28;20052;-63
2022/05/17 01:41:05;;;;;;;9.27;4.32;;;14.30;99.90;;;;;;5038301;28;20135;-63
2022/05/17 01:43:31;;;;;;;11.23;4.72;;;14.30;99.90;;;;;;5035486;28;20060;-63
2022/05/17 01:46:03;;;;;;;12.45;5.80;;;14.30;99.90;;;;;;5035825;28;20065;-63
2022/05/17 01:48:28;;;;;;;12.18;5.05;;;14.20;99.90;;;;;;5037617;28;20037;-63
2022/05/17 01:50:54;;;;;;;9.73;4.10;;;14.20;99.90;;;;;;5036248;28;20036;-63
2022/05/17 01:53:19;;;;;;;9.35;3.63;;;14.10;99.90;;;;;;5038550;28;20132;-63
2022/05/17 01:55:45;;;;;;;10.65;3.95;;;14.10;99.90;;;;;;5036982;28;20087;-63
2022/05/17 01:58:10;;;;;;;10.13;4.50;;;14.10;99.90;;;;;;5037649;28;20178;-63
2022/05/17 02:00:37;;;;;;;7.65;3.60;;;14.10;99.90;;;;;;5034460;28;20124;-63
2022/05/17 02:03:02;;;;;;;11.52;4.45;;;14.10;99.90;;;;;;5038060;28;20041;-63
2022/05/17 02:05:28;;;;;;;12.27;6.25;;;14.00;99.90;;;;;;5064226;28;20692;-63
2022/05/17 02:07:54;;;;;;;9.68;5.15;;;14.10;99.90;;;;;;5039781;28;20488;-63
2022/05/17 02:10:25;;;;;;;16.27;5.47;;;14.00;99.90;;;;;;5065583;28;20036;-63
2022/05/17 02:12:54;;;;;;;9.50;5.45;;;14.00;99.90;;;;;;5039338;28;20099;-63
2022/05/17 02:15:20;;;;;;;7.32;4.18;;;14.00;99.90;;;;;;5037893;28;20051;-63
2022/05/17 02:17:46;;;;;;;9.38;5.18;;;13.90;99.90;;;;;;5067193;28;20049;-63
2022/05/17 02:20:11;;;;;;;7.45;3.05;;;14.00;99.90;;;;;;5034864;28;20060;-63
2022/05/17 02:22:37;;;;;;;10.80;4.82;;;13.90;99.90;;;;;;5035962;28;20056;-63
2022/05/17 02:25:03;;;;;;;7.28;4.13;;;13.80;99.90;;;;;;5036799;28;20048;-63
2022/05/17 02:27:28;;;;;;;6.13;4.72;;;13.80;99.90;;;;;;5035465;28;20135;-63
2022/05/17 02:29:55;;;;;;;11.45;5.40;;;13.80;99.90;;;;;;5033446;28;20521;-63
2022/05/17 02:32:21;;;;;;;10.32;4.63;;;13.80;99.90;;;;;;5035933;28;20134;-63
2022/05/17 02:34:47;;;;;;;5.55;3.85;;;13.80;99.90;;;;;;5038547;28;20097;-63
2022/05/17 02:37:15;;;;;;;10.18;4.35;;;13.70;99.90;;;;;;5035714;28;20061;-63
2022/05/17 02:39:46;;;;;;;8.13;4.28;;;13.70;99.90;;;;;;5037763;28;20174;-63
2022/05/17 02:42:12;;;;;;;5.95;3.55;;;13.70;99.90;;;;;;5036265;28;21030;-63
2022/05/17 02:44:38;;;;;;;10.68;4.75;;;13.60;99.90;;;;;;5038848;28;20053;-63
2022/05/17 02:47:05;;;;;;;11.70;4.82;;;13.60;99.90;;;;;;5047719;28;20579;-63
2022/05/17 02:49:31;;;;;;;8.30;3.85;;;13.60;99.90;;;;;;5039652;28;20064;-63
2022/05/17 02:52:03;;;;;;;6.60;3.45;;;13.50;99.90;;;;;;5038753;28;20843;-63
2022/05/17 02:54:29;;;;;;;6.18;3.08;;;13.50;99.90;;;;;;5039447;28;20491;-63
2022/05/17 02:56:55;;;;;;;6.00;3.25;;;13.50;99.90;;;;;;5039756;28;20045;-63
2022/05/17 02:59:21;;;;;;;9.95;3.75;;;13.40;99.90;;;;;;5039441;28;20044;-63
2022/05/17 03:01:46;;;;;;;7.40;3.58;;;13.40;99.90;;;;;;5038660;28;20049;-63
2022/05/17 03:04:13;;;;;;;7.38;3.95;;;13.40;99.90;;;;;;5039105;28;20045;-63
2022/05/17 03:06:43;;;;;;;10.90;4.95;;;13.30;99.90;;;;;;5068034;28;20067;-63
2022/05/17 03:09:10;;;;;;;12.50;4.78;;;13.30;99.90;;;;;;5039514;28;20048;-63
2022/05/17 03:11:36;;;;;;;12.77;4.80;;;13.30;99.90;;;;;;5040127;28;20483;-63
2022/05/17 03:14:03;;;;;;;8.65;4.32;;;13.20;99.90;;;;;;5041525;28;20043;-63
2022/05/17 03:16:31;;;;;;;15.95;5.25;;;13.20;99.90;;;;;;5039097;28;20037;-63
2022/05/17 03:18:58;;;;;;;14.13;5.45;;;13.20;99.90;;;;;;5042508;28;20167;-63
2022/05/17 03:21:24;;;;;;;14.88;4.85;;;13.20;99.90;;;;;;5067663;28;20045;-63
2022/05/17 03:23:49;;;;;;;8.02;5.63;;;13.20;99.90;;;;;;5039844;28;20056;-63
2022/05/17 03:26:15;;;;;;;14.32;4.05;;;13.20;99.90;;;;;;5041771;28;20490;-63
2022/05/17 03:28:40;;;;;;;12.80;4.57;;;13.20;99.90;;;;;;5036348;28;20040;-63
2022/05/17 03:31:07;;;;;;;17.52;6.85;;;13.10;99.90;;;;;;5040180;28;20044;-63
2022/05/17 03:33:33;;;;;;;18.27;7.15;;;13.20;99.90;;;;;;5041691;28;20433;-63
2022/05/17 03:35:59;;;;;;;13.48;6.80;;;13.20;99.90;;;;;;5036305;28;20473;-63
2022/05/17 03:38:25;;;;;;;13.05;5.20;;;13.20;99.90;;;;;;5020029;28;20041;-63
2022/05/17 03:40:52;;;;;;;12.75;6.68;;;13.20;99.90;;;;;;5038409;28;20044;-63
2022/05/17 03:43:19;;;;;;;14.27;6.13;;;13.10;99.90;;;;;;5038056;28;20055;-63
2022/05/17 03:45:45;;;;;;;15.85;7.15;;;13.20;99.90;;;;;;5067408;28;20053;-63
2022/05/17 03:48:11;;;;;;;10.85;4.45;;;13.10;99.90;;;;;;5040585;28;20678;-64
2022/05/17 03:50:37;;;;;;;12.52;6.10;;;13.20;99.90;;;;;;5040643;28;20033;-63
2022/05/17 03:53:03;;;;;;;19.27;7.10;;;13.20;99.90;;;;;;5036130;28;20053;-63
2022/05/17 03:55:30;;;;;;;16.27;6.93;;;13.20;99.90;;;;;;5038380;28;20051;-63
2022/05/17 03:57:56;;;;;;;15.82;8.13;;;13.30;99.90;;;;;;5039397;28;20514;-63
2022/05/17 04:00:22;;;;;;;15.77;7.18;;;13.30;99.90;;;;;;5039868;28;20040;-63
2022/05/17 04:02:47;;;;;;;14.55;7.72;;;13.30;99.90;;;;;;5038303;28;20055;-63
2022/05/17 04:05:13;;;;;;;15.00;7.55;;;13.40;99.90;;;;;;5038887;28;20549;-63
2022/05/17 04:07:39;;;;;;;14.60;7.50;;;13.40;99.90;;;;;;5037897;28;20280;-64
2022/05/17 04:10:07;;;;;;;18.40;8.80;;;13.60;99.90;;;;;;5039096;28;20047;-63
2022/05/17 04:12:33;;;;;;;14.75;7.25;;;13.70;99.90;;;;;;5067382;28;20710;-63
2022/05/17 04:14:59;;;;;;;16.48;7.55;;;13.80;99.90;;;;;;5020530;28;20052;-63
2022/05/17 04:17:24;;;;;;;11.93;6.65;;;14.00;99.90;;;;;;5037913;28;20048;-63
2022/05/17 04:19:50;;;;;;;15.70;6.45;;;14.20;99.90;;;;;;5040699;28;20049;-63
2022/05/17 04:22:15;;;;;;;14.68;7.30;;;14.40;99.90;;;;;;5040430;28;20044;-64
2022/05/17 04:24:41;;;;;;;17.10;7.38;;;14.60;99.90;;;;;;5037725;28;20045;-63
2022/05/17 04:27:09;;;;;;;15.52;6.50;;;14.70;99.90;;;;;;5034298;28;20041;-63
2022/05/17 04:29:35;;;;;;;12.50;6.70;;;14.80;99.90;;;;;;5039556;28;20530;-63
2022/05/17 04:32:00;;;;;;;19.70;6.72;;;14.80;99.90;;;;;;5034481;28;20041;-63
2022/05/17 04:34:26;;;;;;;10.88;7.30;;;14.80;99.90;;;;;;5035928;28;20041;-63
2022/05/17 04:36:52;;;;;;;12.35;6.47;;;14.90;99.90;;;;;;5037374;28;20051;-63
2022/05/17 04:39:18;;;;;;;13.27;6.53;;;15.00;99.90;;;;;;5038017;28;20059;-63
2022/05/17 04:41:43;;;;;;;16.83;7.55;;;15.00;99.90;;;;;;5037828;28;20041;-63
2022/05/17 04:44:10;;;;;;;12.40;6.70;;;15.10;99.90;;;;;;5042399;28;20041;-63
2022/05/17 04:46:35;;;;;;;18.23;6.63;;;15.10;99.90;;;;;;5042964;28;20048;-65
2022/05/17 04:49:01;;;;;;;15.90;7.28;;;15.10;99.90;;;;;;5042474;28;20045;-63
2022/05/17 04:51:27;;;;;;;15.13;7.13;;;15.10;99.90;;;;;;5045662;28;20786;-63
2022/05/17 04:53:52;;;;;;;16.23;7.18;;;15.20;99.90;;;;;;5043658;28;20041;-63
2022/05/17 04:56:19;;;;;;;15.10;7.03;;;15.10;99.90;;;;;;5034868;28;20049;-64
2022/05/17 04:58:45;;;;;;;13.73;7.10;;;15.10;99.90;;;;;;5036138;28;20049;-63
2022/05/17 05:01:10;;;;;;;14.48;7.28;;;15.10;99.90;;;;;;5033081;28;20033;-63
2022/05/17 05:03:36;;;;;;;15.27;7.25;;;15.20;99.90;;;;;;5035014;28;20041;-64
2022/05/17 05:06:03;;;;;;;12.98;7.28;;;15.20;99.90;;;;;;5047993;28;20695;-63
2022/05/17 05:08:55;;;;;;;13.35;6.55;;;15.40;99.90;;;;;;5047101;28;20044;-64
2022/05/17 05:11:20;;;;;;;9.30;5.85;;;15.80;99.90;;;;;;5036665;28;20033;-63
2022/05/17 05:13:46;;;;;;;15.07;5.88;;;16.30;99.90;;;;;;5039076;28;20037;-63
2022/05/17 05:16:13;;;;;;;10.45;4.70;;;16.80;99.90;;;;;;5035337;28;20044;-63
2022/05/17 05:18:39;;;;;;;14.80;6.28;;;17.40;99.90;;;;;;5039942;28;20045;-64
2022/05/17 05:21:12;;;;;;;10.80;5.07;;;17.90;99.90;;;;;;5036746;28;20037;-63
2022/05/17 05:23:39;;;;;;;11.50;4.80;;;18.40;99.90;;;;;;5039912;28;20083;-63
2022/05/17 05:26:05;;;;;;;9.07;4.90;;;18.80;99.90;;;;;;5039841;28;20036;-63
2022/05/17 05:28:31;;;;;;;10.90;5.45;;;19.00;99.90;;;;;;5035570;28;20162;-63
2022/05/17 05:30:57;;;;;;;11.45;5.75;;;19.30;99.90;;;;;;5036540;28;20041;-63
2022/05/17 05:33:23;;;;;;;14.80;5.28;;;19.50;99.90;;;;;;5036940;28;20127;-64
2022/05/17 05:35:51;;;;;;;10.55;4.72;;;19.80;99.90;;;;;;5034990;28;20047;-63
2022/05/17 05:38:17;;;;;;;13.13;4.88;;;19.80;99.90;;;;;;5036164;28;20053;-63
2022/05/17 05:40:43;;;;;;;14.80;5.38;;;20.10;99.90;;;;;;5038168;28;20071;-63
2022/05/17 05:43:08;;;;;;;10.38;4.40;;;20.20;99.90;;;;;;5035641;28;20053;-64
2022/05/17 05:45:34;;;;;;;9.68;4.22;;;20.20;99.90;;;;;;5033136;28;20052;-64
2022/05/17 05:48:00;;;;;;;9.57;4.32;;;20.30;99.90;;;;;;5036213;28;20105;-64
2022/05/17 05:50:26;;;;;;;10.50;4.65;;;20.30;99.90;;;;;;5037803;28;20037;-64
2022/05/17 05:52:59;;;;;;;12.88;4.68;;;20.20;99.90;;;;;;5035839;28;20083;-64
2022/05/17 05:55:24;;;;;;;12.82;4.88;;;20.10;99.90;;;;;;5039745;28;20120;-63
2022/05/17 05:57:50;;;;;;;13.02;5.22;;;19.90;99.90;;;;;;5038326;28;20491;-64
2022/05/17 06:00:19;;;;;;;11.18;4.63;;;19.80;99.90;;;;;;5037606;28;20037;-63
2022/05/17 06:02:45;;;;;;;16.60;5.45;;;19.70;99.90;;;;;;5066973;28;20051;-64
2022/05/17 06:05:11;;;;;;;13.07;4.80;;;19.60;99.90;;;;;;5035595;28;21562;-63
2022/05/17 06:07:37;;;;;;;13.30;5.00;;;19.50;99.90;;;;;;5036534;28;20716;-65
2022/05/17 06:10:05;;;;;;;11.35;4.10;;;19.50;99.90;;;;;;5028047;28;20094;-64
2022/05/17 06:12:31;;;;;;;11.55;4.93;;;19.60;99.90;;;;;;5033705;28;20133;-64
2022/05/17 06:14:57;;;;;;;16.20;3.80;;;19.70;99.90;;;;;;5034895;28;20048;-63
2022/05/17 06:17:27;;;;;;;34.20;6.10;;;19.70;99.90;;;;;;5032140;28;20055;-63
2022/05/17 06:19:54;;;;;;;23.35;5.00;;;19.80;99.90;;;;;;5030705;28;20052;-64
2022/05/17 06:22:19;;;;;;;11.85;3.80;;;19.90;99.90;;;;;;5031584;28;20070;-63
2022/05/17 06:24:45;;;;;;;9.20;3.65;;;20.10;99.90;;;;;;5036661;28;20482;-63
2022/05/17 06:27:11;;;;;;;12.63;3.85;;;20.10;99.90;;;;;;5034748;28;20059;-63
2022/05/17 06:29:37;;;;;;;17.77;3.90;;;20.20;99.90;;;;;;5038549;28;20044;-63
2022/05/17 06:32:03;;;;;;;12.40;3.47;;;20.20;99.90;;;;;;5034602;28;20475;-63
2022/05/17 06:34:30;;;;;;;11.13;2.92;;;20.20;99.90;;;;;;5033028;28;20126;-63
2022/05/17 06:36:55;;;;;;;10.60;2.92;;;20.30;99.90;;;;;;5035085;28;20167;-64
2022/05/17 06:39:21;;;;;;;9.57;3.33;;;20.20;99.90;;;;;;5066939;28;20119;-63
2022/05/17 06:41:47;;;;;;;13.65;3.47;;;20.30;99.90;;;;;;5033920;28;20044;-64
2022/05/17 06:44:13;;;;;;;12.05;3.10;;;20.40;99.90;;;;;;5064793;28;20048;-63
2022/05/17 06:46:39;;;;;;;14.30;3.33;;;20.70;99.90;;;;;;5036797;28;20060;-63
2022/05/17 06:49:08;;;;;;;10.95;3.30;;;20.80;99.90;;;;;;5057259;28;20225;-64
2022/05/17 06:51:35;;;;;;;13.77;3.78;;;20.80;99.90;;;;;;5032742;28;20037;-63
2022/05/17 06:54:01;;;;;;;10.48;3.35;;;20.70;99.90;;;;;;5031785;28;21275;-63
2022/05/17 06:56:26;;;;;;;12.30;3.10;;;20.60;99.90;;;;;;5064733;28;20048;-63
2022/05/17 06:58:52;;;;;;;9.63;3.03;;;20.70;99.90;;;;;;5038587;28;20078;-63
2022/05/17 07:01:18;;;;;;;14.23;3.90;;;20.80;99.90;;;;;;5037214;28;20041;-63
2022/05/17 07:03:44;;;;;;;8.95;2.95;;;20.90;99.90;;;;;;5017882;28;20045;-63
2022/05/17 07:06:10;;;;;;;11.60;3.42;;;20.90;99.90;;;;;;5033045;28;20169;-63
2022/05/17 07:08:36;;;;;;;11.38;2.97;;;20.90;99.90;;;;;;5035402;28;20122;-63
2022/05/17 07:13:46;;;;;;;12.52;3.08;;;20.70;99.90;;;;;;5032702;28;20175;-63
2022/05/17 07:16:11;;;;;;;12.73;2.85;;;21.00;99.90;;;;;;5033340;28;20037;-63
2022/05/17 07:18:37;;;;;;;8.93;2.50;;;21.30;99.90;;;;;;5034728;28;20095;-63
2022/05/17 07:21:03;;;;;;;8.88;2.42;;;21.70;99.90;;;;;;5030365;28;20482;-63
2022/05/17 07:23:29;;;;;;;12.75;3.10;;;22.00;99.90;;;;;;5031044;28;20052;-63
2022/05/17 07:25:55;;;;;;;12.32;2.72;;;22.40;99.90;;;;;;5032275;28;20452;-63
2022/05/17 07:28:23;;;;;;;10.15;2.63;;;22.50;99.90;;;;;;5032589;28;20041;-63
2022/05/17 07:30:49;;;;;;;8.07;2.47;;;22.60;99.90;;;;;;5032433;28;20041;-64
2022/05/17 07:33:16;;;;;;;9.18;2.63;;;22.70;99.90;;;;;;5030649;28;20120;-63
2022/05/17 07:35:42;;;;;;;11.70;2.80;;;22.90;99.90;;;;;;5029173;28;20060;-63
2022/05/17 07:38:08;;;;;;;7.18;2.10;;;22.90;99.90;;;;;;5029675;28;20049;-63
2022/05/17 07:40:35;;;;;;;10.80;2.25;;;23.00;99.90;;;;;;5032631;28;20680;-64
2022/05/17 07:43:02;;;;;;;11.05;2.88;;;23.20;99.90;;;;;;5033843;28;22554;-64
2022/05/17 07:45:28;;;;;;;12.80;3.03;;;23.30;99.90;;;;;;5030943;28;20063;-63
2022/05/17 07:47:54;;;;;;;11.02;3.28;;;23.40;99.90;;;;;;5030922;28;20398;-64
2022/05/17 07:50:20;;;;;;;11.13;2.70;;;23.60;99.90;;;;;;5032917;28;21891;-64
2022/05/17 07:52:45;;;;;;;10.77;3.10;;;23.80;99.90;;;;;;5034284;28;20039;-63
2022/05/17 07:55:12;;;;;;;6.68;2.17;;;23.90;99.90;;;;;;5034974;28;20045;-63
2022/05/17 07:57:38;;;;;;;8.85;2.30;;;24.00;99.90;;;;;;5035986;28;20592;-63
2022/05/17 08:00:06;;;;;;;9.77;2.85;;;23.90;99.90;;;;;;5035383;28;20045;-64
2022/05/17 08:02:34;;;;;;;10.63;2.30;;;23.70;99.40;;;;;;5068166;28;20041;-63
2022/05/17 08:05:01;;;;;;;9.85;2.38;;;23.70;99.90;;;;;;5031460;28;20045;-64
2022/05/17 08:07:27;;;;;;;12.70;2.75;;;23.70;99.90;;;;;;5035906;28;20083;-63
2022/05/17 08:09:53;;;;;;;9.63;2.03;;;23.80;99.90;;;;;;5062635;28;20053;-63
2022/05/17 08:12:18;;;;;;;7.22;2.97;;;23.80;99.90;;;;;;5033197;28;20603;-64
2022/05/17 08:14:45;;;;;;;9.13;2.08;;;24.00;99.90;;;;;;5032709;28;20052;-63
2022/05/17 08:17:11;;;;;;;9.60;1.95;;;24.10;99.50;;;;;;5036453;28;20065;-64
2022/05/17 08:19:38;;;;;;;10.57;2.45;;;24.00;98.20;;;;;;5034153;28;20053;-64
2022/05/17 08:22:06;;;;;;;8.73;2.28;;;23.80;99.20;;;;;;5033384;28;20041;-63
2022/05/17 08:27:31;;;;;;;6.47;2.13;;;23.80;99.90;;;;;;5065849;28;20056;-64
2022/05/17 08:27:31;;;;;;;8.70;2.50;;;24.00;99.90;;;;;;5034358;28;20045;-64
2022/05/17 08:30:00;;;;;;;8.10;2.17;;;24.30;99.60;;;;;;5035089;28;20040;-64
2022/05/17 08:35:10;;;;;;;7.65;2.42;;;24.30;97.10;;;;;;5034294;28;20823;-64
2022/05/17 08:37:36;;;;;;;8.15;1.80;;;24.30;98.20;;;;;;5036127;28;20044;-64
2022/05/17 08:40:02;;;;;;;9.77;2.47;;;24.30;95.70;;;;;;5036317;28;20132;-64
2022/05/17 08:42:50;;;;;;;7.22;1.40;;;24.50;97.70;;;;;;5033077;28;20137;-63
2022/05/17 08:45:21;;;;;;;7.03;1.77;;;24.50;94.20;;;;;;5034984;28;20628;-64
2022/05/17 08:47:52;;;;;;;7.60;1.33;;;24.40;92.60;;;;;;5033226;28;20043;-64
2022/05/17 08:50:27;;;;;;;8.23;1.40;;;24.40;92.20;;;;;;5033720;28;20774;-64
2022/05/17 08:52:54;;;;;;;10.65;2.20;;;24.40;93.00;;;;;;5036346;28;20032;-64
2022/05/17 08:55:40;;;;;;;6.93;1.67;;;24.60;93.80;;;;;;5034384;28;20442;-64
2022/05/17 08:58:27;;;;;;;7.38;1.30;;;24.80;91.80;;;;;;5038440;28;20036;-64
2022/05/17 09:01:00;;;;;;;9.68;1.50;;;24.80;92.10;;;;;;5036454;28;20048;-64
2022/05/17 09:04:04;;;;;;;8.02;1.55;;;25.00;90.90;;;;;;5044346;28;20055;-64
2022/05/17 09:07:17;;;;;;;6.03;1.65;;;25.20;90.40;;;;;;5033306;28;20094;-64
2022/05/17 09:10:01;;;;;;;5.50;1.33;;;25.40;90.60;;;;;;5023454;28;20056;-64
2022/05/17 09:12:52;;;;;;;10.75;1.30;;;25.60;87.90;;;;;;5032819;28;20041;-64
2022/05/17 09:15:18;;;;;;;7.72;1.40;;;25.60;86.30;;;;;;5067000;28;20040;-64
2022/05/17 09:17:45;;;;;;;4.15;0.90;;;25.70;87.40;;;;;;5034881;28;20140;-64
2022/05/17 09:20:18;;;;;;;8.98;1.70;;;25.80;87.90;;;;;;5031244;28;20052;-64
2022/05/17 09:22:44;;;;;;;5.55;1.20;;;25.70;78.70;;;;;;5063591;28;20438;-64
2022/05/17 09:25:15;;;;;;;3.60;0.98;;;25.60;78.90;;;;;;5032945;28;20048;-64
2022/05/17 09:27:45;;;;;;;6.25;0.90;;;25.50;81.30;;;;;;5036197;28;20127;-64
2022/05/17 09:30:23;;;;;;;6.70;1.70;;;25.70;82.00;;;;;;5017359;28;20455;-64
2022/05/17 09:32:59;;;;;;;4.68;0.90;;;25.90;82.60;;;;;;5032179;28;20043;-64
2022/05/17 09:35:25;;;;;;;7.07;1.00;;;26.00;81.40;;;;;;5032399;28;21149;-64
2022/05/17 09:37:53;;;;;;;10.98;1.10;;;26.20;80.90;;;;;;5032304;28;20045;-64
2022/05/17 09:40:25;;;;;;;3.95;0.90;;;26.20;82.00;;;;;;5029852;28;20120;-64
2022/05/17 09:42:57;;;;;;;7.38;1.17;;;26.30;81.60;;;;;;5033347;28;20183;-64
2022/05/17 09:46:00;;;;;;;5.93;1.10;;;26.30;81.90;;;;;;5028865;28;20060;-64
2022/05/17 09:48:33;;;;;;;4.20;1.20;;;26.30;78.20;;;;;;5031765;28;20044;-64
2022/05/17 09:53:46;;;;;;;5.20;1.00;;;26.30;76.70;;;;;;5050336;28;20065;-64
2022/05/17 09:56:13;;;;;;;11.45;1.40;;;26.50;75.30;;;;;;5034105;28;20056;-64
2022/05/17 09:58:41;;;;;;;6.32;1.15;;;26.70;76.70;;;;;;5032069;28;20045;-64
2022/05/17 10:01:20;;;;;;;6.22;1.17;;;26.70;75.50;;;;;;5017376;28;20037;-64
2022/05/17 10:04:09;;;;;;;5.43;1.27;;;26.60;78.10;;;;;;5033359;28;20376;-64
2022/05/17 10:06:38;;;;;;;5.03;1.00;;;26.50;76.30;;;;;;5032694;28;20122;-64
2022/05/17 10:09:12;;;;;;;5.47;0.95;;;26.30;69.90;;;;;;5045733;28;20041;-64
2022/05/17 10:12:11;;;;;;;6.38;0.80;;;26.10;74.20;;;;;;5031926;28;20442;-64
2022/05/17 10:14:44;;;;;;;4.15;1.10;;;26.00;76.00;;;;;;4988815;28;20072;-64
2022/05/17 10:17:36;;;;;;;6.38;1.33;;;25.80;71.30;;;;;;5061369;28;20087;-64
2022/05/17 10:20:07;;;;;;;4.85;1.35;;;25.60;73.80;;;;;;5032999;28;21550;-64
2022/05/17 10:22:45;;;;;;;5.00;1.23;;;25.60;74.50;;;;;;5030245;28;20060;-64
2022/05/17 10:25:28;;;;;;;6.25;1.65;;;25.40;70.00;;;;;;5035390;28;21002;-64
2022/05/17 10:28:07;;;;;;;8.00;0.80;;;25.20;69.20;;;;;;5015404;28;20589;-64
2022/05/17 10:30:45;;;;;;;5.70;0.90;;;24.90;71.00;;;;;;5033979;28;21108;-64
2022/05/17 10:33:16;;;;;;;6.40;1.35;;;24.80;73.00;;;;;;5036955;28;20044;-64
2022/05/17 10:36:00;;;;;;;7.38;1.05;;;24.70;70.90;;;;;;5035271;28;20064;-64
2022/05/17 10:38:37;;;;;;;6.13;1.38;;;24.50;72.30;;;;;;5034051;28;20128;-64
2022/05/17 10:41:11;;;;;;;19.33;2.28;;;24.50;71.00;;;;;;5031597;28;20048;-64
2022/05/17 10:43:41;;;;;;;6.75;0.90;;;24.50;73.40;;;;;;5030083;28;20268;-64
2022/05/17 10:46:12;;;;;;;5.43;0.90;;;24.40;72.90;;;;;;5034044;28;20079;-64
2022/05/17 10:48:53;;;;;;;6.63;1.05;;;24.50;70.10;;;;;;5037081;28;20033;-64
2022/05/17 10:51:38;;;;;;;4.00;0.73;;;24.80;70.70;;;;;;5032502;28;20041;-64
2022/05/17 10:54:10;;;;;;;7.20;1.35;;;25.00;73.30;;;;;;5034548;28;20158;-64
2022/05/17 10:57:05;;;;;;;6.38;1.00;;;25.20;73.40;;;;;;5031201;28;20194;-64
2022/05/17 10:59:59;;;;;;;7.45;1.33;;;25.50;73.30;;;;;;4975122;28;20089;-65
2022/05/17 11:02:35;;;;;;;4.32;0.95;;;25.90;68.30;;;;;;5028944;28;20045;-63
2022/05/17 11:05:38;;;;;;;2.88;0.70;;;26.00;66.70;;;;;;5032603;28;21643;-64
2022/05/17 11:08:28;;;;;;;11.25;1.45;;;26.00;67.30;;;;;;5028806;28;20052;-64
2022/05/17 11:10:54;;;;;;;6.75;0.93;;;26.20;62.30;;;;;;5030817;28;20146;-64
2022/05/17 11:13:42;;;;;;;9.48;0.98;;;26.10;64.90;;;;;;5034772;28;20044;-64
2022/05/17 11:16:26;;;;;;;7.13;1.35;;;26.20;65.00;;;;;;5034916;28;20048;-64
2022/05/17 11:19:10;;;;;;;5.18;1.13;;;26.40;68.50;;;;;;5067062;28;21583;-64
2022/05/17 11:21:42;;;;;;;19.23;2.08;;;26.60;69.70;;;;;;5030789;28;20056;-64
2022/05/17 11:24:31;;;;;;;7.70;1.50;;;26.70;70.10;;;;;;5032875;28;20041;-64
2022/05/17 11:27:31;;;;;;;12.70;1.85;;;26.70;69.60;;;;;;5028569;28;20045;-64
2022/05/17 11:30:10;;;;;;;11.23;1.70;;;26.70;68.00;;;;;;5034260;28;20184;-64
2022/05/17 11:32:40;;;;;;;10.75;1.40;;;26.80;71.50;;;;;;5037600;28;20061;-64
2022/05/17 11:35:26;;;;;;;7.32;1.95;;;26.90;67.60;;;;;;5034537;28;20046;-64
2022/05/17 11:37:53;;;;;;;12.98;2.10;;;26.50;72.30;;;;;;5035903;28;20072;-64
2022/05/17 11:40:49;;;;;;;8.80;1.90;;;26.30;72.20;;;;;;5034385;28;20386;-64
2022/05/17 11:43:40;;;;;;;10.23;1.58;;;26.60;74.60;;;;;;5026806;28;20057;-64
2022/05/17 11:46:26;;;;;;;10.77;2.45;;;26.70;71.40;;;;;;5025863;28;20052;-64
2022/05/17 11:48:56;;;;;;;15.10;2.67;;;26.70;71.70;;;;;;5034492;28;20064;-64
2022/05/17 11:51:33;;;;;;;12.38;1.98;;;26.70;72.40;;;;;;5032783;28;20056;-64
2022/05/17 11:54:03;;;;;;;14.88;1.85;;;26.70;72.70;;;;;;5064892;28;20060;-64
2022/05/17 11:56:32;;;;;;;8.70;1.58;;;26.70;73.60;;;;;;5039143;28;20072;-64
2022/05/17 11:59:23;;;;;;;5.65;1.50;;;26.70;71.40;;;;;;5038820;28;20049;-64
2022/05/17 12:02:02;;;;;;;11.90;1.73;;;26.70;71.80;;;;;;5015324;28;20052;-64
2022/05/17 12:04:28;;;;;;;12.10;1.80;;;26.60;72.90;;;;;;5035494;28;20041;-64
2022/05/17 12:06:54;;;;;;;5.53;1.30;;;26.60;72.00;;;;;;5035759;28;20114;-64
2022/05/17 12:09:22;;;;;;;8.88;1.77;;;26.50;71.00;;;;;;5035212;28;20123;-64
2022/05/17 12:12:13;;;;;;;6.32;1.55;;;26.30;72.30;;;;;;5035602;28;20830;-64
2022/05/17 12:15:07;;;;;;;6.90;1.30;;;26.30;72.50;;;;;;5035236;28;20060;-64
2022/05/17 12:17:58;;;;;;;6.93;1.42;;;26.30;73.00;;;;;;5034119;28;20053;-64
2022/05/17 12:20:59;;;;;;;9.13;1.65;;;26.10;71.40;;;;;;5061335;28;20045;-66
2022/05/17 12:23:38;;;;;;;8.38;1.70;;;26.10;74.40;;;;;;5033741;28;20167;-64
2022/05/17 12:26:10;;;;;;;7.95;1.92;;;26.20;74.40;;;;;;5035576;28;20045;-64
2022/05/17 12:28:49;;;;;;;6.85;1.50;;;26.30;73.60;;;;;;5033764;28;20055;-64
2022/05/17 12:31:26;;;;;;;9.25;2.75;;;26.30;73.50;;;;;;5033201;28;20094;-65
2022/05/17 12:33:52;;;;;;;8.50;1.90;;;26.30;75.10;;;;;;5066285;28;20041;-65
2022/05/17 12:36:20;;;;;;;9.77;2.08;;;26.10;74.60;;;;;;5034274;28;20166;-65
2022/05/17 12:44:49;;;;;;;10.45;2.35;;;25.80;75.60;;;;;;5032294;28;20633;-64
2022/05/17 12:47:34;;;;;;;11.05;2.47;;;25.70;76.80;;;;;;5018978;28;20418;-64
2022/05/17 12:50:00;;;;;;;10.60;2.77;;;25.80;76.70;;;;;;5033773;28;20078;-65
2022/05/17 12:52:33;;;;;;;6.40;2.22;;;26.00;78.50;;;;;;5037167;28;20559;-64
2022/05/17 12:55:19;;;;;;;9.75;2.03;;;26.10;75.50;;;;;;5036133;28;21172;-64
2022/05/17 12:57:45;;;;;;;10.43;2.67;;;26.00;76.00;;;;;;5033146;28;20055;-64
2022/05/17 13:00:32;;;;;;;6.10;1.58;;;26.10;76.80;;;;;;5037170;28;20036;-65
2022/05/17 13:03:01;;;;;;;10.25;2.63;;;26.20;75.30;;;;;;5035250;28;20040;-65
2022/05/17 13:05:39;;;;;;;8.38;1.95;;;26.20;74.70;;;;;;5035051;28;20509;-65
2022/05/17 13:08:14;;;;;;;15.30;3.20;;;26.20;74.20;;;;;;5062778;28;20566;-65
2022/05/17 13:10:43;;;;;;;5.50;1.27;;;26.00;75.10;;;;;;5033514;28;20055;-65
2022/05/17 13:13:21;;;;;;;15.50;2.67;;;26.30;74.00;;;;;;5032311;28;20072;-65
2022/05/17 13:15:53;;;;;;;6.97;1.77;;;26.50;74.50;;;;;;5064822;28;20047;-65
2022/05/17 13:18:20;;;;;;;7.22;1.92;;;26.50;76.20;;;;;;5032713;28;20044;-65